createdAt,value
2022-07-28T00:01:58.856Z,99942.22
2022-07-28T00:04:25.559Z,99942.47
2022-07-28T00:06:52.185Z,99939.66
2022-07-28T00:09:18.892Z,99939.78
2022-07-28T00:11:50.396Z,99935.47
2022-07-28T00:14:22.186Z,99950.50
2022-07-28T00:16:48.964Z,99952.72
2022-07-28T00:19:15.715Z,99945.50
2022-07-28T00:21:42.425Z,99942.09
2022-07-28T00:24:09.621Z,99953.06
2022-07-28T00:26:36.429Z,99948.53
2022-07-28T00:29:03.096Z,99936.03
2022-07-28T00:31:29.788Z,99942.00
2022-07-28T00:33:56.608Z,99933.97
2022-07-28T00:36:24.650Z,99931.63
2022-07-28T00:38:52.748Z,99930.31
2022-07-28T00:41:20.094Z,99928.84
2022-07-28T00:43:49.219Z,99937.09
2022-07-28T00:46:18.440Z,99932.75
2022-07-28T00:48:55.171Z,99925.88
2022-07-28T00:51:24.500Z,99929.31
2022-07-28T00:53:51.593Z,99917.72
2022-07-28T00:56:18.644Z,99921.81
2022-07-28T00:58:46.408Z,99924.53
2022-07-28T01:01:14.772Z,99922.38
2022-07-28T01:03:44.262Z,99930.78
2022-07-28T01:06:19.911Z,99931.28
2022-07-28T01:09:05.193Z,99922.16
2022-07-28T01:11:58.269Z,99921.50
2022-07-28T01:14:48.848Z,99921.28
2022-07-28T01:17:28.553Z,99921.13
2022-07-28T01:20:10.133Z,99925.25
2022-07-28T01:23:11.623Z,99921.31
2022-07-28T01:25:57.119Z,99922.50
2022-07-28T01:28:27.229Z,99914.25
2022-07-28T01:30:57.866Z,99920.91
2022-07-28T01:33:37.584Z,99917.84
2022-07-28T01:36:13.318Z,99917.50
2022-07-28T01:38:40.446Z,99918.81
2022-07-28T01:41:15.125Z,99912.13
2022-07-28T01:43:46.203Z,99915.06
2022-07-28T01:46:15.462Z,99909.56
2022-07-28T01:48:45.782Z,99908.34
2022-07-28T01:51:14.355Z,99910.56
2022-07-28T01:53:44.908Z,99918.22
2022-07-28T01:56:12.798Z,99912.75
2022-07-28T01:58:41.536Z,99912.88
2022-07-28T02:01:12.034Z,99911.44
2022-07-28T02:03:40.096Z,99916.19
2022-07-28T02:06:07.641Z,99905.69
2022-07-28T02:08:36.404Z,99902.41
2022-07-28T02:11:03.098Z,99904.31
2022-07-28T02:13:33.556Z,99900.19
2022-07-28T02:16:01.163Z,99899.72
2022-07-28T02:18:30.023Z,99898.25
2022-07-28T02:20:58.016Z,99897.63
2022-07-28T02:23:24.795Z,99890.56
2022-07-28T02:25:51.770Z,99890.44
2022-07-28T02:28:22.109Z,99896.13
2022-07-28T02:30:58.963Z,99894.06
2022-07-28T02:33:57.899Z,99893.06
2022-07-28T02:36:26.344Z,99891.03
2022-07-28T02:38:55.937Z,99897.09
2022-07-28T02:41:29.559Z,99895.03
2022-07-28T02:44:18.866Z,99900.50
2022-07-28T02:46:49.593Z,99899.06
2022-07-28T02:49:31.102Z,99900.50
2022-07-28T02:52:00.627Z,99903.56
2022-07-28T02:54:29.211Z,99906.47
2022-07-28T02:56:58.485Z,99912.34
2022-07-28T02:59:26.846Z,99912.94
2022-07-28T03:01:54.095Z,99922.78
2022-07-28T03:04:21.011Z,99933.88
2022-07-28T03:06:47.712Z,99933.41
2022-07-28T03:09:14.417Z,99934.50
2022-07-28T03:11:53.624Z,99939.56
2022-07-28T03:14:20.298Z,99936.84
2022-07-28T03:16:49.083Z,99944.66
2022-07-28T03:19:18.888Z,99940.41
2022-07-28T03:21:45.512Z,99948.97
2022-07-28T03:24:13.023Z,99948.31
2022-07-28T03:26:45.674Z,99948.94
2022-07-28T03:29:15.342Z,99945.72
2022-07-28T03:31:42.374Z,99947.25
2022-07-28T03:34:09.054Z,99955.28
2022-07-28T03:36:40.832Z,99947.88
2022-07-28T03:39:08.884Z,99951.50
2022-07-28T03:41:38.388Z,99952.72
2022-07-28T03:44:05.685Z,99951.66
2022-07-28T03:46:32.701Z,99954.31
2022-07-28T03:48:59.686Z,99960.28
2022-07-28T03:51:26.346Z,99957.84
2022-07-28T03:53:54.726Z,99962.47
2022-07-28T03:56:21.362Z,99968.38
2022-07-28T03:58:47.991Z,99969.00
2022-07-28T04:01:14.748Z,99970.94
2022-07-28T04:03:43.774Z,99969.13
2022-07-28T04:06:12.649Z,99972.91
2022-07-28T04:08:39.610Z,99971.75
2022-07-28T04:11:06.261Z,99973.00
2022-07-28T04:13:32.955Z,99971.28
2022-07-28T04:16:00.313Z,99973.19
2022-07-28T04:18:27.119Z,99972.31
2022-07-28T04:20:53.834Z,99969.13
2022-07-28T04:23:20.465Z,99970.84
2022-07-28T04:25:47.165Z,99975.44
2022-07-28T04:28:14.085Z,99976.06
2022-07-28T04:30:44.118Z,99983.94
2022-07-28T04:33:11.554Z,99981.38
2022-07-28T04:35:38.207Z,99986.41
2022-07-28T04:38:04.942Z,99993.16
2022-07-28T04:40:31.601Z,99994.75
2022-07-28T04:42:58.212Z,99984.38
2022-07-28T04:45:24.950Z,99984.44
2022-07-28T04:47:51.739Z,99983.47
2022-07-28T04:50:18.379Z,99981.41
2022-07-28T04:52:45.016Z,99993.31
2022-07-28T04:55:11.646Z,99994.22
2022-07-28T04:57:38.290Z,99989.47
2022-07-28T05:00:07.325Z,99994.25
2022-07-28T05:02:35.179Z,100001.19
2022-07-28T05:05:01.955Z,99992.69
2022-07-28T05:07:28.636Z,99996.47
2022-07-28T05:09:55.246Z,100004.06
2022-07-28T05:12:21.985Z,100009.66
2022-07-28T05:14:48.669Z,100008.31
2022-07-28T05:17:15.307Z,100016.50
2022-07-28T05:19:42.112Z,100010.69
2022-07-28T05:22:08.846Z,100012.59
2022-07-28T05:24:35.453Z,100010.44
2022-07-28T05:27:02.142Z,100004.16
2022-07-28T05:29:46.802Z,100015.88
2022-07-28T05:32:17.023Z,100017.78
2022-07-28T05:34:45.197Z,100021.94
2022-07-28T05:37:11.821Z,100028.06
2022-07-28T05:39:38.425Z,100028.25
2022-07-28T05:42:05.190Z,100028.13
2022-07-28T05:44:37.668Z,100040.09
2022-07-28T05:47:06.121Z,100026.81
2022-07-28T05:49:33.003Z,100030.09
2022-07-28T05:51:59.642Z,100036.56
2022-07-28T05:54:26.303Z,100034.94
2022-07-28T05:56:53.257Z,100035.59
2022-07-28T05:59:19.899Z,100037.06
2022-07-28T06:01:46.666Z,100037.84
2022-07-28T06:04:29.367Z,100041.56
2022-07-28T06:06:56.547Z,100047.53
2022-07-28T06:09:23.250Z,100052.06
2022-07-28T06:11:49.886Z,100048.53
2022-07-28T06:14:16.780Z,100060.19
2022-07-28T06:16:43.832Z,100062.78
2022-07-28T06:19:10.560Z,100058.63
2022-07-28T06:21:37.180Z,100057.13
2022-07-28T06:24:04.029Z,100058.00
2022-07-28T06:26:30.648Z,100062.59
2022-07-28T06:28:57.254Z,100070.47
2022-07-28T06:31:23.969Z,100066.97
2022-07-28T06:33:50.652Z,100071.16
2022-07-28T06:36:17.348Z,100071.81
2022-07-28T06:38:43.991Z,100068.47
2022-07-28T06:41:10.681Z,100069.06
2022-07-28T06:43:39.253Z,100073.28
2022-07-28T06:46:06.740Z,100073.78
2022-07-28T06:48:33.875Z,100073.34
2022-07-28T06:51:01.037Z,100067.25
2022-07-28T06:53:27.986Z,100073.34
2022-07-28T06:56:00.632Z,100077.16
2022-07-28T06:58:27.227Z,100074.19
2022-07-28T07:00:53.886Z,100074.97
2022-07-28T07:03:20.629Z,100080.34
2022-07-28T07:05:49.052Z,100077.22
2022-07-28T07:08:18.966Z,100080.69
2022-07-28T07:10:45.576Z,100083.03
2022-07-28T07:13:13.963Z,100092.59
2022-07-28T07:15:40.845Z,100085.81
2022-07-28T07:18:07.517Z,100091.94
2022-07-28T07:20:34.207Z,100086.97
2022-07-28T07:23:00.871Z,100093.06
2022-07-28T07:25:27.600Z,100093.75
2022-07-28T07:27:54.223Z,100078.44
2022-07-28T07:30:20.913Z,100082.88
2022-07-28T07:32:47.599Z,100079.13
2022-07-28T07:35:14.410Z,100085.63
2022-07-28T07:37:41.553Z,100077.38
2022-07-28T07:40:08.864Z,100083.34
2022-07-28T07:42:35.629Z,100086.91
2022-07-28T07:45:02.389Z,100087.38
2022-07-28T07:47:29.165Z,100081.13
2022-07-28T07:49:55.831Z,100081.25
2022-07-28T07:52:22.475Z,100082.25
2022-07-28T07:54:49.205Z,100079.72
2022-07-28T07:57:15.838Z,100080.56
2022-07-28T07:59:42.562Z,100080.97
2022-07-28T08:02:09.430Z,100081.81
2022-07-28T08:04:37.562Z,100082.78
2022-07-28T08:07:05.695Z,100077.38
2022-07-28T08:09:32.971Z,100075.38
2022-07-28T08:11:59.622Z,100078.47
2022-07-28T08:14:26.270Z,100077.66
2022-07-28T08:16:52.894Z,100081.00
2022-07-28T08:19:21.507Z,100078.06
2022-07-28T08:21:48.450Z,100078.81
2022-07-28T08:24:15.452Z,100086.31
2022-07-28T08:26:59.184Z,100086.28
2022-07-28T08:29:25.961Z,100086.31
2022-07-28T08:31:52.851Z,100081.75
2022-07-28T08:34:31.309Z,100083.34
2022-07-28T08:37:02.185Z,100091.53
2022-07-28T08:39:29.497Z,100080.34
2022-07-28T08:42:05.983Z,100072.06
2022-07-28T08:45:01.392Z,100070.09
2022-07-28T08:47:40.612Z,100075.97
2022-07-28T08:50:14.073Z,100082.38
2022-07-28T08:52:44.653Z,100079.97
2022-07-28T08:55:17.588Z,100082.34
2022-07-28T08:57:46.234Z,100085.56
2022-07-28T09:00:13.319Z,100080.28
2022-07-28T09:02:44.632Z,100079.25
2022-07-28T09:05:12.096Z,100081.34
2022-07-28T09:07:39.504Z,100077.56
2022-07-28T09:10:06.451Z,100081.03
2022-07-28T09:12:36.627Z,100075.63
2022-07-28T09:15:06.592Z,100067.63
2022-07-28T09:17:34.364Z,100066.81
2022-07-28T09:20:01.611Z,100069.00
2022-07-28T09:22:28.358Z,100068.59
2022-07-28T09:24:55.027Z,100069.44
2022-07-28T09:27:21.648Z,100064.41
2022-07-28T09:29:58.342Z,100064.00
2022-07-28T09:32:25.892Z,100071.03
2022-07-28T09:34:52.591Z,100061.00
2022-07-28T09:37:27.829Z,100048.84
2022-07-28T09:39:56.311Z,100052.19
2022-07-28T09:42:22.965Z,100052.06
2022-07-28T09:45:24.726Z,100051.38
2022-07-28T09:48:12.878Z,100048.38
2022-07-28T09:50:43.406Z,100049.03
2022-07-28T09:53:27.402Z,100049.88
2022-07-28T09:56:00.927Z,100044.97
2022-07-28T09:58:28.310Z,100045.22
2022-07-28T10:01:08.210Z,100045.03
2022-07-28T10:03:36.632Z,100042.22
2022-07-28T10:06:05.424Z,100042.38
2022-07-28T10:08:43.627Z,100037.78
2022-07-28T10:11:11.510Z,100037.31
2022-07-28T10:14:00.239Z,100039.63
2022-07-28T10:16:29.651Z,100041.34
2022-07-28T10:18:58.086Z,100040.63
2022-07-28T10:21:26.709Z,100046.03
2022-07-28T10:23:56.626Z,100036.06
2022-07-28T10:26:31.867Z,100040.63
2022-07-28T10:29:03.362Z,100035.53
2022-07-28T10:31:34.504Z,100027.34
2022-07-28T10:34:03.569Z,100020.47
2022-07-28T10:36:32.473Z,100024.19
2022-07-28T10:39:03.768Z,100017.75
2022-07-28T10:41:38.872Z,100022.84
2022-07-28T10:44:05.900Z,100014.72
2022-07-28T10:46:33.966Z,100019.28
2022-07-28T10:49:03.625Z,100020.47
2022-07-28T10:51:31.495Z,100013.00
2022-07-28T10:54:24.893Z,100003.28
2022-07-28T10:56:57.185Z,100011.44
2022-07-28T10:59:34.168Z,100007.25
2022-07-28T11:02:00.982Z,100001.63
2022-07-28T11:04:45.780Z,99995.31
2022-07-28T11:07:15.113Z,100000.66
2022-07-28T11:09:41.765Z,99998.28
2022-07-28T11:12:09.523Z,99994.88
2022-07-28T11:14:39.465Z,99993.78
2022-07-28T11:17:10.686Z,99987.78
2022-07-28T11:19:55.597Z,99993.03
2022-07-28T11:22:32.656Z,99995.22
2022-07-28T11:24:59.573Z,99987.06
2022-07-28T11:27:42.728Z,99991.81
2022-07-28T11:30:27.090Z,99995.38
2022-07-28T11:32:56.945Z,99998.53
2022-07-28T11:35:25.126Z,99993.63
2022-07-28T11:38:00.770Z,99989.78
2022-07-28T11:40:30.597Z,99987.41
2022-07-28T11:43:36.471Z,99985.34
2022-07-28T11:46:05.041Z,99978.09
2022-07-28T11:48:39.333Z,99978.22
2022-07-28T11:51:06.019Z,99974.44
2022-07-28T11:53:38.453Z,99978.75
2022-07-28T11:56:07.399Z,99985.34
2022-07-28T11:58:34.605Z,99980.28
2022-07-28T12:01:17.291Z,99966.41
2022-07-28T12:03:49.997Z,99969.91
2022-07-28T12:06:29.652Z,99967.00
2022-07-28T12:09:05.109Z,99964.47
2022-07-28T12:11:37.269Z,99966.56
2022-07-28T12:14:08.622Z,99963.72
2022-07-28T12:16:40.556Z,99968.19
2022-07-28T12:19:08.980Z,99958.53
2022-07-28T12:21:51.011Z,99957.28
2022-07-28T12:24:30.554Z,99956.03
2022-07-28T12:26:58.617Z,99963.63
2022-07-28T12:29:26.259Z,99954.09
2022-07-28T12:32:05.228Z,99952.59
2022-07-28T12:34:34.150Z,99946.44
2022-07-28T12:37:02.833Z,99946.56
2022-07-28T12:39:30.745Z,99941.06
2022-07-28T12:42:08.564Z,99941.94
2022-07-28T12:44:43.240Z,99943.13
2022-07-28T12:47:11.775Z,99950.84
2022-07-28T12:49:40.564Z,99945.97
2022-07-28T12:52:22.154Z,99938.56
2022-07-28T12:54:54.737Z,99938.22
2022-07-28T12:57:48.059Z,99939.72
2022-07-28T13:00:18.150Z,99945.34
2022-07-28T13:02:44.993Z,99941.84
2022-07-28T13:05:31.572Z,99939.72
2022-07-28T13:08:05.800Z,99940.72
2022-07-28T13:10:33.141Z,99937.31
2022-07-28T13:13:05.750Z,99938.72
2022-07-28T13:15:33.068Z,99938.47
2022-07-28T13:18:00.169Z,99930.25
2022-07-28T13:20:27.260Z,99923.34
2022-07-28T13:22:54.788Z,99927.03
2022-07-28T13:25:21.881Z,99921.44
2022-07-28T13:27:54.965Z,99923.88
2022-07-28T13:30:22.503Z,99921.34
2022-07-28T13:32:49.564Z,99921.06
2022-07-28T13:35:18.724Z,99919.56
2022-07-28T13:37:45.645Z,99904.63
2022-07-28T13:40:12.769Z,99921.00
2022-07-28T13:42:39.549Z,99907.00
2022-07-28T13:45:06.723Z,99912.91
2022-07-28T13:47:35.548Z,99913.00
2022-07-28T13:50:06.833Z,99916.31
2022-07-28T13:52:37.420Z,99910.47
2022-07-28T13:55:04.662Z,99898.16
2022-07-28T13:57:31.585Z,99901.94
2022-07-28T14:00:03.417Z,99897.63
2022-07-28T14:02:30.121Z,99904.31
2022-07-28T14:04:56.820Z,99901.03
2022-07-28T14:07:23.499Z,99901.31
2022-07-28T14:09:53.165Z,99896.25
2022-07-28T14:12:20.846Z,99895.28
2022-07-28T14:14:48.052Z,99907.97
2022-07-28T14:17:40.184Z,99896.91
2022-07-28T14:20:04.255Z,99898.59
2022-07-28T14:22:30.874Z,99893.53
2022-07-28T14:24:57.532Z,99897.78
2022-07-28T14:27:28.980Z,99891.09
2022-07-28T14:29:55.943Z,99890.84
2022-07-28T14:32:22.633Z,99896.69
2022-07-28T14:34:49.274Z,99885.19
2022-07-28T14:37:17.135Z,99880.84
2022-07-28T14:39:43.997Z,99887.59
2022-07-28T14:42:10.601Z,99881.25
2022-07-28T14:44:37.534Z,99879.03
2022-07-28T14:47:04.961Z,99879.13
2022-07-28T14:49:31.878Z,99874.06
2022-07-28T14:51:58.499Z,99872.06
2022-07-28T14:54:25.439Z,99878.59
2022-07-28T14:56:52.148Z,99868.13
2022-07-28T14:59:19.219Z,99869.16
2022-07-28T15:01:45.938Z,99875.66
2022-07-28T15:04:16.460Z,99871.31
2022-07-28T15:06:43.332Z,99872.19
2022-07-28T15:09:10.172Z,99870.28
2022-07-28T15:11:36.983Z,99870.44
2022-07-28T15:14:03.822Z,99867.03
2022-07-28T15:16:30.493Z,99862.69
2022-07-28T15:18:57.198Z,99864.50
2022-07-28T15:21:23.898Z,99854.25
2022-07-28T15:23:50.529Z,99864.28
2022-07-28T15:26:17.318Z,99853.97
2022-07-28T15:28:43.940Z,99863.34
2022-07-28T15:31:10.727Z,99862.13
2022-07-28T15:33:41.086Z,99859.25
2022-07-28T15:36:15.699Z,99857.63
2022-07-28T15:38:47.500Z,99861.16
2022-07-28T15:41:16.565Z,99855.94
2022-07-28T15:43:43.993Z,99852.16
2022-07-28T15:46:12.672Z,99855.31
2022-07-28T15:48:41.546Z,99860.25
2022-07-28T15:51:08.924Z,99855.16
2022-07-28T15:53:36.202Z,99853.97
2022-07-28T15:56:04.392Z,99848.25
2022-07-28T15:58:31.243Z,99855.47
2022-07-28T16:01:01.514Z,99852.81
2022-07-28T16:03:29.672Z,99859.16
2022-07-28T16:05:56.448Z,99854.00
2022-07-28T16:08:23.497Z,99851.50
2022-07-28T16:10:51.229Z,99850.56
2022-07-28T16:13:22.756Z,99848.09
2022-07-28T16:16:02.759Z,99850.31
2022-07-28T16:18:29.520Z,99850.56
2022-07-28T16:20:56.121Z,99852.53
2022-07-28T16:23:22.859Z,99855.72
2022-07-28T16:25:49.578Z,99845.22
2022-07-28T16:28:16.297Z,99851.03
2022-07-28T16:30:43.072Z,99850.66
2022-07-28T16:33:09.734Z,99852.16
2022-07-28T16:35:36.590Z,99851.44
2022-07-28T16:38:04.993Z,99852.72
2022-07-28T16:40:32.918Z,99855.72
2022-07-28T16:43:00.914Z,99854.84
2022-07-28T16:45:30.795Z,99853.94
2022-07-28T16:47:59.028Z,99866.06
2022-07-28T16:50:25.779Z,99859.78
2022-07-28T16:52:52.572Z,99863.41
2022-07-28T16:55:23.361Z,99853.03
2022-07-28T16:57:52.023Z,99860.53
2022-07-28T17:00:19.105Z,99860.22
2022-07-28T17:02:45.809Z,99861.47
2022-07-28T17:05:13.443Z,99863.59
2022-07-28T17:07:44.982Z,99858.88
2022-07-28T17:10:14.016Z,99858.22
2022-07-28T17:12:43.254Z,99868.13
2022-07-28T17:15:22.254Z,99863.91
2022-07-28T17:17:53.263Z,99863.16
2022-07-28T17:20:20.197Z,99867.84
2022-07-28T17:22:47.294Z,99866.94
2022-07-28T17:28:01.292Z,99861.56
2022-07-28T17:30:29.957Z,99865.31
2022-07-28T17:32:57.539Z,99865.16
2022-07-28T17:35:31.416Z,99862.28
2022-07-28T17:38:02.257Z,99864.25
2022-07-28T17:40:28.924Z,99872.97
2022-07-28T17:42:55.546Z,99873.00
2022-07-28T17:45:22.208Z,99873.03
2022-07-28T17:47:48.842Z,99865.16
2022-07-28T17:50:15.940Z,99874.31
2022-07-28T17:52:43.798Z,99877.34
2022-07-28T17:55:10.878Z,99874.06
2022-07-28T17:57:39.628Z,99886.72
2022-07-28T18:00:08.092Z,99887.06
2022-07-28T18:02:34.778Z,99882.31
2022-07-28T18:05:04.074Z,99882.88
2022-07-28T18:07:30.730Z,99881.19
2022-07-28T18:10:17.154Z,99875.75
2022-07-28T18:12:46.888Z,99878.63
2022-07-28T18:15:13.533Z,99880.34
2022-07-28T18:17:55.270Z,99884.06
2022-07-28T18:20:23.573Z,99884.75
2022-07-28T18:22:50.583Z,99880.66
2022-07-28T18:25:17.471Z,99884.00
2022-07-28T18:27:44.097Z,99881.13
2022-07-28T18:30:11.400Z,99887.44
2022-07-28T18:32:38.090Z,99889.41
2022-07-28T18:35:05.152Z,99897.53
2022-07-28T18:37:31.803Z,99897.84
2022-07-28T18:39:58.437Z,99897.16
2022-07-28T18:42:25.090Z,99901.38
2022-07-28T18:44:51.738Z,99905.03
2022-07-28T18:47:18.375Z,99902.56
2022-07-28T18:49:45.005Z,99904.59
2022-07-28T18:52:11.719Z,99909.25
2022-07-28T18:54:38.365Z,99911.41
2022-07-28T18:57:04.972Z,99914.75
2022-07-28T18:59:31.606Z,99919.44
2022-07-28T19:01:58.334Z,99918.06
2022-07-28T19:04:25.140Z,99917.13
2022-07-28T19:06:51.789Z,99917.22
2022-07-28T19:09:18.541Z,99917.63
2022-07-28T19:11:46.540Z,99924.28
2022-07-28T19:14:14.869Z,99922.50
2022-07-28T19:16:42.100Z,99927.91
2022-07-28T19:19:08.749Z,99925.22
2022-07-28T19:21:35.752Z,99926.47
2022-07-28T19:24:02.604Z,99929.47
2022-07-28T19:26:29.239Z,99929.78
2022-07-28T19:28:55.987Z,99930.16
2022-07-28T19:31:22.754Z,99931.94
2022-07-28T19:33:49.421Z,99930.47
2022-07-28T19:36:16.234Z,99931.91
2022-07-28T19:38:42.886Z,99928.63
2022-07-28T19:41:10.032Z,99933.88
2022-07-28T19:43:36.672Z,99941.28
2022-07-28T19:46:03.518Z,99937.06
2022-07-28T19:48:30.207Z,99940.56
2022-07-28T19:50:57.263Z,99940.22
2022-07-28T19:53:30.958Z,99939.16
2022-07-28T19:55:58.803Z,99947.25
2022-07-28T19:58:25.475Z,99944.59
2022-07-28T20:00:52.255Z,99947.00
2022-07-28T20:04:01.414Z,99949.03
2022-07-28T20:06:05.742Z,99953.03
2022-07-28T20:08:32.470Z,99954.56
2022-07-28T20:10:59.204Z,99954.13
2022-07-28T20:13:25.815Z,99960.38
2022-07-28T20:15:52.448Z,99961.81
2022-07-28T20:18:19.167Z,99957.88
2022-07-28T20:20:46.647Z,99961.47
2022-07-28T20:23:13.290Z,99962.19
2022-07-28T20:25:39.965Z,99969.41
2022-07-28T20:28:06.603Z,99966.56
2022-07-28T20:30:33.394Z,99961.47
2022-07-28T20:33:00.466Z,99965.63
2022-07-28T20:35:28.144Z,99969.63
2022-07-28T20:37:54.830Z,99975.31
2022-07-28T20:40:21.505Z,99975.31
2022-07-28T20:42:52.814Z,99965.91
2022-07-28T20:45:19.992Z,99978.13
2022-07-28T20:47:46.701Z,99977.84
2022-07-28T20:50:13.380Z,99970.91
2022-07-28T20:52:40.087Z,99978.41
2022-07-28T20:55:07.815Z,99975.16
2022-07-28T20:57:35.196Z,99984.38
2022-07-28T21:00:01.852Z,99980.84
2022-07-28T21:02:29.143Z,99982.09
2022-07-28T21:04:55.898Z,99982.41
2022-07-28T21:08:00.483Z,99981.81
2022-07-28T21:10:10.774Z,99988.50
2022-07-28T21:12:38.755Z,99989.47
2022-07-28T21:15:07.225Z,99985.38
2022-07-28T21:17:33.950Z,99983.41
2022-07-28T21:20:00.632Z,99983.25
2022-07-28T21:22:27.615Z,99980.28
2022-07-28T21:24:55.570Z,99989.47
2022-07-28T21:27:23.208Z,100000.78
2022-07-28T21:29:49.905Z,100002.75
2022-07-28T21:32:16.561Z,99999.28
2022-07-28T21:34:43.203Z,100015.03
2022-07-28T21:37:09.898Z,100011.03
2022-07-28T21:39:37.270Z,100014.63
2022-07-28T21:42:07.838Z,100020.84
2022-07-28T21:44:35.307Z,100019.97
2022-07-28T21:47:01.981Z,100015.88
2022-07-28T21:49:28.618Z,100024.84
2022-07-28T21:51:55.254Z,100022.38
2022-07-28T21:54:21.916Z,100024.13
2022-07-28T21:56:48.561Z,100028.97
2022-07-28T21:59:15.201Z,100035.25
2022-07-28T22:01:41.955Z,100031.59
2022-07-28T22:04:08.645Z,100037.09
2022-07-28T22:06:35.300Z,100037.94
2022-07-28T22:09:01.979Z,100034.56
2022-07-28T22:11:29.396Z,100031.06
2022-07-28T22:13:56.067Z,100030.13
2022-07-28T22:16:22.931Z,100029.31
2022-07-28T22:18:49.709Z,100041.78
2022-07-28T22:21:16.487Z,100039.94
2022-07-28T22:23:43.132Z,100032.00
2022-07-28T22:26:09.811Z,100037.72
2022-07-28T22:28:36.512Z,100035.56
2022-07-28T22:31:09.210Z,100042.25
2022-07-28T22:33:39.787Z,100036.41
2022-07-28T22:36:07.481Z,100033.66
2022-07-28T22:38:34.129Z,100022.97
2022-07-28T22:41:00.759Z,100033.66
2022-07-28T22:43:27.421Z,100036.88
2022-07-28T22:45:54.166Z,100034.06
2022-07-28T22:48:20.840Z,100037.38
2022-07-28T22:50:47.468Z,100032.00
2022-07-28T22:53:14.135Z,100035.75
2022-07-28T22:55:40.801Z,100030.50
2022-07-28T22:58:07.447Z,100033.53
2022-07-28T23:00:36.510Z,100030.31
2022-07-28T23:03:04.500Z,100037.09
2022-07-28T23:05:31.178Z,100035.44
2022-07-28T23:07:58.717Z,100039.22
2022-07-28T23:10:26.415Z,100046.91
2022-07-28T23:12:57.364Z,100035.03
2022-07-28T23:15:40.338Z,100030.34
2022-07-28T23:18:12.343Z,100038.38
2022-07-28T23:20:39.946Z,100030.53
2022-07-28T23:23:07.072Z,100037.72
2022-07-28T23:25:35.931Z,100041.88
2022-07-28T23:28:02.581Z,100031.72
2022-07-28T23:30:29.245Z,100041.13
2022-07-28T23:32:55.877Z,100034.31
2022-07-28T23:35:22.989Z,100033.72
2022-07-28T23:37:49.722Z,100036.69
2022-07-28T23:40:16.376Z,100030.91
2022-07-28T23:42:43.042Z,100028.63
2022-07-28T23:45:10.418Z,100031.25
2022-07-28T23:47:37.027Z,100030.97
2022-07-28T23:50:05.233Z,100032.97
2022-07-28T23:52:31.941Z,100033.03
2022-07-28T23:54:58.650Z,100031.25
2022-07-28T23:57:25.319Z,100033.59
2022-07-28T23:59:57.888Z,100031.50
